sensor_id;sensor_type;location;lat;lon;timestamp;temperature;humidity
3416;DHT22;1721;51.238;9.562;2024-03-22T00:01:40;9.60;91.10
3416;DHT22;1721;51.238;9.562;2024-03-22T00:04:05;9.50;91.30
3416;DHT22;1721;51.238;9.562;2024-03-22T00:06:31;9.50;91.10
3416;DHT22;1721;51.238;9.562;2024-03-22T00:08:56;9.40;91.20
3416;DHT22;1721;51.238;9.562;2024-03-22T00:11:22;9.40;91.30
3416;DHT22;1721;51.238;9.562;2024-03-22T00:13:47;9.50;91.30
3416;DHT22;1721;51.238;9.562;2024-03-22T00:16:13;9.40;91.50
3416;DHT22;1721;51.238;9.562;2024-03-22T00:18:38;9.40;91.40
3416;DHT22;1721;51.238;9.562;2024-03-22T00:21:04;9.50;91.50
3416;DHT22;1721;51.238;9.562;2024-03-22T00:23:30;9.50;91.40
3416;DHT22;1721;51.238;9.562;2024-03-22T00:25:56;9.50;91.40
3416;DHT22;1721;51.238;9.562;2024-03-22T00:28:21;9.50;91.50
3416;DHT22;1721;51.238;9.562;2024-03-22T00:30:47;9.50;91.60
3416;DHT22;1721;51.238;9.562;2024-03-22T00:33:12;9.50;91.60
3416;DHT22;1721;51.238;9.562;2024-03-22T00:35:38;9.50;91.90
3416;DHT22;1721;51.238;9.562;2024-03-22T00:38:03;9.50;91.80
3416;DHT22;1721;51.238;9.562;2024-03-22T00:40:29;9.50;92.00
3416;DHT22;1721;51.238;9.562;2024-03-22T00:42:54;9.50;91.80
3416;DHT22;1721;51.238;9.562;2024-03-22T00:45:20;9.40;92.20
3416;DHT22;1721;51.238;9.562;2024-03-22T00:47:45;9.50;92.10
3416;DHT22;1721;51.238;9.562;2024-03-22T00:50:11;9.50;92.10
3416;DHT22;1721;51.238;9.562;2024-03-22T00:52:38;9.60;91.90
3416;DHT22;1721;51.238;9.562;2024-03-22T00:55:04;9.70;91.90
3416;DHT22;1721;51.238;9.562;2024-03-22T00:57:30;9.70;91.80
3416;DHT22;1721;51.238;9.562;2024-03-22T00:59:56;9.80;91.90
3416;DHT22;1721;51.238;9.562;2024-03-22T01:02:22;9.80;91.80
3416;DHT22;1721;51.238;9.562;2024-03-22T01:04:48;9.90;91.60
3416;DHT22;1721;51.238;9.562;2024-03-22T01:07:13;9.90;91.60
3416;DHT22;1721;51.238;9.562;2024-03-22T01:09:39;9.90;91.50
3416;DHT22;1721;51.238;9.562;2024-03-22T01:12:05;9.70;91.40
3416;DHT22;1721;51.238;9.562;2024-03-22T01:14:31;9.70;91.80
3416;DHT22;1721;51.238;9.562;2024-03-22T01:16:56;9.80;91.70
3416;DHT22;1721;51.238;9.562;2024-03-22T01:19:22;9.90;91.70
3416;DHT22;1721;51.238;9.562;2024-03-22T01:21:48;9.90;91.60
3416;DHT22;1721;51.238;9.562;2024-03-22T01:24:14;9.90;91.40
3416;DHT22;1721;51.238;9.562;2024-03-22T01:26:40;9.90;91.50
3416;DHT22;1721;51.238;9.562;2024-03-22T01:29:05;9.90;91.40
3416;DHT22;1721;51.238;9.562;2024-03-22T01:31:31;9.80;91.30
3416;DHT22;1721;51.238;9.562;2024-03-22T01:33:56;9.80;91.80
3416;DHT22;1721;51.238;9.562;2024-03-22T01:36:22;9.80;91.80
3416;DHT22;1721;51.238;9.562;2024-03-22T01:38:47;9.80;91.60
3416;DHT22;1721;51.238;9.562;2024-03-22T01:41:13;9.70;91.90
3416;DHT22;1721;51.238;9.562;2024-03-22T01:43:39;9.80;91.80
3416;DHT22;1721;51.238;9.562;2024-03-22T01:46:05;9.90;92.00
3416;DHT22;1721;51.238;9.562;2024-03-22T01:48:33;9.90;91.90
3416;DHT22;1721;51.238;9.562;2024-03-22T01:50:59;9.90;92.00
3416;DHT22;1721;51.238;9.562;2024-03-22T01:53:25;9.90;92.00
3416;DHT22;1721;51.238;9.562;2024-03-22T01:55:50;9.90;92.10
3416;DHT22;1721;51.238;9.562;2024-03-22T01:58:16;9.80;92.20
3416;DHT22;1721;51.238;9.562;2024-03-22T02:00:43;9.90;92.20
3416;DHT22;1721;51.238;9.562;2024-03-22T02:03:09;9.90;92.20
3416;DHT22;1721;51.238;9.562;2024-03-22T02:05:35;9.80;92.00
3416;DHT22;1721;51.238;9.562;2024-03-22T02:08:00;9.80;92.20
3416;DHT22;1721;51.238;9.562;2024-03-22T02:10:26;9.80;92.20
3416;DHT22;1721;51.238;9.562;2024-03-22T02:12:52;9.80;92.20
3416;DHT22;1721;51.238;9.562;2024-03-22T02:15:17;9.90;92.20
3416;DHT22;1721;51.238;9.562;2024-03-22T02:17:43;9.70;91.90
3416;DHT22;1721;51.238;9.562;2024-03-22T02:20:09;9.60;92.30
3416;DHT22;1721;51.238;9.562;2024-03-22T02:22:35;9.50;92.50
3416;DHT22;1721;51.238;9.562;2024-03-22T02:25:01;9.50;92.90
3416;DHT22;1721;51.238;9.562;2024-03-22T02:27:26;9.50;92.70
3416;DHT22;1721;51.238;9.562;2024-03-22T02:29:52;9.50;92.60
3416;DHT22;1721;51.238;9.562;2024-03-22T02:32:17;9.40;92.60
3416;DHT22;1721;51.238;9.562;2024-03-22T02:34:43;9.20;92.90
3416;DHT22;1721;51.238;9.562;2024-03-22T02:37:08;9.20;93.20
3416;DHT22;1721;51.238;9.562;2024-03-22T02:39:34;9.20;93.30
3416;DHT22;1721;51.238;9.562;2024-03-22T02:42:00;9.30;93.20
3416;DHT22;1721;51.238;9.562;2024-03-22T02:44:25;9.30;93.20
3416;DHT22;1721;51.238;9.562;2024-03-22T02:46:51;9.30;93.10
3416;DHT22;1721;51.238;9.562;2024-03-22T02:49:16;9.20;93.10
3416;DHT22;1721;51.238;9.562;2024-03-22T02:51:42;9.20;93.50
3416;DHT22;1721;51.238;9.562;2024-03-22T02:54:07;9.30;93.20
3416;DHT22;1721;51.238;9.562;2024-03-22T02:56:33;9.30;93.20
3416;DHT22;1721;51.238;9.562;2024-03-22T02:58:58;9.30;93.10
3416;DHT22;1721;51.238;9.562;2024-03-22T03:01:24;9.30;93.10
3416;DHT22;1721;51.238;9.562;2024-03-22T03:03:49;9.20;93.20
3416;DHT22;1721;51.238;9.562;2024-03-22T03:06:15;9.20;93.20
3416;DHT22;1721;51.238;9.562;2024-03-22T03:08:42;9.20;93.30
3416;DHT22;1721;51.238;9.562;2024-03-22T03:11:08;9.10;93.40
3416;DHT22;1721;51.238;9.562;2024-03-22T03:13:33;9.20;93.20
3416;DHT22;1721;51.238;9.562;2024-03-22T03:15:59;9.10;93.50
3416;DHT22;1721;51.238;9.562;2024-03-22T03:18:24;9.10;93.90
3416;DHT22;1721;51.238;9.562;2024-03-22T03:20:50;9.10;94.20
3416;DHT22;1721;51.238;9.562;2024-03-22T03:23:15;9.20;93.90
3416;DHT22;1721;51.238;9.562;2024-03-22T03:25:41;9.30;93.90
3416;DHT22;1721;51.238;9.562;2024-03-22T03:28:06;9.20;93.70
3416;DHT22;1721;51.238;9.562;2024-03-22T03:30:34;9.20;93.90
3416;DHT22;1721;51.238;9.562;2024-03-22T03:33:00;9.30;93.90
3416;DHT22;1721;51.238;9.562;2024-03-22T03:35:25;9.30;94.10
3416;DHT22;1721;51.238;9.562;2024-03-22T03:37:51;9.30;94.10
3416;DHT22;1721;51.238;9.562;2024-03-22T03:40:17;9.20;94.00
3416;DHT22;1721;51.238;9.562;2024-03-22T03:42:42;9.20;93.90
3416;DHT22;1721;51.238;9.562;2024-03-22T03:45:08;9.10;93.90
3416;DHT22;1721;51.238;9.562;2024-03-22T03:47:33;9.00;94.40
3416;DHT22;1721;51.238;9.562;2024-03-22T03:49:59;9.20;94.50
3416;DHT22;1721;51.238;9.562;2024-03-22T03:52:25;9.30;94.50
3416;DHT22;1721;51.238;9.562;2024-03-22T03:54:50;9.50;94.20
3416;DHT22;1721;51.238;9.562;2024-03-22T03:57:16;9.60;94.10
3416;DHT22;1721;51.238;9.562;2024-03-22T03:59:41;9.50;94.00
3416;DHT22;1721;51.238;9.562;2024-03-22T04:02:07;9.40;94.10
3416;DHT22;1721;51.238;9.562;2024-03-22T04:04:33;9.30;94.30
3416;DHT22;1721;51.238;9.562;2024-03-22T04:06:58;9.30;94.50
3416;DHT22;1721;51.238;9.562;2024-03-22T04:09:24;9.40;94.70
3416;DHT22;1721;51.238;9.562;2024-03-22T04:11:49;9.40;94.50
3416;DHT22;1721;51.238;9.562;2024-03-22T04:14:15;9.30;94.50
3416;DHT22;1721;51.238;9.562;2024-03-22T04:16:40;9.40;94.70
3416;DHT22;1721;51.238;9.562;2024-03-22T04:19:06;9.50;94.60
3416;DHT22;1721;51.238;9.562;2024-03-22T04:21:31;9.50;94.80
3416;DHT22;1721;51.238;9.562;2024-03-22T04:23:57;9.60;94.70
3416;DHT22;1721;51.238;9.562;2024-03-22T04:26:22;9.70;94.50
3416;DHT22;1721;51.238;9.562;2024-03-22T04:28:48;9.70;94.50
3416;DHT22;1721;51.238;9.562;2024-03-22T04:31:14;9.70;94.30
3416;DHT22;1721;51.238;9.562;2024-03-22T04:33:39;9.60;94.40
3416;DHT22;1721;51.238;9.562;2024-03-22T04:36:05;9.60;94.30
3416;DHT22;1721;51.238;9.562;2024-03-22T04:38:31;9.70;94.50
3416;DHT22;1721;51.238;9.562;2024-03-22T04:40:57;9.70;94.60
3416;DHT22;1721;51.238;9.562;2024-03-22T04:43:23;9.70;94.30
3416;DHT22;1721;51.238;9.562;2024-03-22T04:45:50;9.90;94.50
3416;DHT22;1721;51.238;9.562;2024-03-22T04:48:20;9.80;94.20
3416;DHT22;1721;51.238;9.562;2024-03-22T04:50:52;9.90;94.50
3416;DHT22;1721;51.238;9.562;2024-03-22T04:53:21;10.00;94.10
3416;DHT22;1721;51.238;9.562;2024-03-22T04:55:47;10.10;93.80
3416;DHT22;1721;51.238;9.562;2024-03-22T04:58:20;10.10;93.70
3416;DHT22;1721;51.238;9.562;2024-03-22T05:00:46;9.90;93.90
3416;DHT22;1721;51.238;9.562;2024-03-22T05:03:12;9.90;94.30
3416;DHT22;1721;51.238;9.562;2024-03-22T05:05:38;9.90;94.60
3416;DHT22;1721;51.238;9.562;2024-03-22T05:08:05;9.80;94.50
3416;DHT22;1721;51.238;9.562;2024-03-22T05:10:30;10.00;94.10
3416;DHT22;1721;51.238;9.562;2024-03-22T05:12:56;10.00;93.60
3416;DHT22;1721;51.238;9.562;2024-03-22T05:15:23;9.90;94.40
3416;DHT22;1721;51.238;9.562;2024-03-22T05:17:51;10.00;93.90
3416;DHT22;1721;51.238;9.562;2024-03-22T05:20:16;10.00;93.60
3416;DHT22;1721;51.238;9.562;2024-03-22T05:22:42;10.00;94.10
3416;DHT22;1721;51.238;9.562;2024-03-22T05:25:08;10.00;93.60
3416;DHT22;1721;51.238;9.562;2024-03-22T05:27:34;10.10;93.70
3416;DHT22;1721;51.238;9.562;2024-03-22T05:29:59;10.10;93.80
3416;DHT22;1721;51.238;9.562;2024-03-22T05:32:25;10.10;93.60
3416;DHT22;1721;51.238;9.562;2024-03-22T05:34:52;10.10;93.80
3416;DHT22;1721;51.238;9.562;2024-03-22T05:37:17;10.20;93.80
3416;DHT22;1721;51.238;9.562;2024-03-22T05:39:43;10.20;93.50
3416;DHT22;1721;51.238;9.562;2024-03-22T05:42:09;10.10;93.50
3416;DHT22;1721;51.238;9.562;2024-03-22T05:44:34;10.10;93.90
3416;DHT22;1721;51.238;9.562;2024-03-22T05:47:00;10.10;93.90
3416;DHT22;1721;51.238;9.562;2024-03-22T05:49:26;10.10;93.60
3416;DHT22;1721;51.238;9.562;2024-03-22T05:51:52;10.10;93.70
3416;DHT22;1721;51.238;9.562;2024-03-22T05:54:18;10.20;93.80
3416;DHT22;1721;51.238;9.562;2024-03-22T05:56:43;10.10;93.50
3416;DHT22;1721;51.238;9.562;2024-03-22T05:59:09;10.10;93.70
3416;DHT22;1721;51.238;9.562;2024-03-22T06:01:35;10.10;93.70
3416;DHT22;1721;51.238;9.562;2024-03-22T06:04:01;10.10;93.80
3416;DHT22;1721;51.238;9.562;2024-03-22T06:06:26;10.00;93.60
3416;DHT22;1721;51.238;9.562;2024-03-22T06:08:52;10.10;93.70
3416;DHT22;1721;51.238;9.562;2024-03-22T06:11:19;10.10;93.50
3416;DHT22;1721;51.238;9.562;2024-03-22T06:13:46;10.20;93.70
3416;DHT22;1721;51.238;9.562;2024-03-22T06:16:12;10.10;93.90
3416;DHT22;1721;51.238;9.562;2024-03-22T06:18:38;10.20;93.50
3416;DHT22;1721;51.238;9.562;2024-03-22T06:21:04;10.30;93.40
3416;DHT22;1721;51.238;9.562;2024-03-22T06:23:30;10.50;93.70
3416;DHT22;1721;51.238;9.562;2024-03-22T06:25:56;10.60;93.40
3416;DHT22;1721;51.238;9.562;2024-03-22T06:28:23;10.60;93.20
3416;DHT22;1721;51.238;9.562;2024-03-22T06:30:48;10.60;92.70
3416;DHT22;1721;51.238;9.562;2024-03-22T06:33:14;10.50;92.90
3416;DHT22;1721;51.238;9.562;2024-03-22T06:35:43;10.50;93.20
3416;DHT22;1721;51.238;9.562;2024-03-22T06:38:08;10.50;93.10
3416;DHT22;1721;51.238;9.562;2024-03-22T06:40:34;10.50;93.20
3416;DHT22;1721;51.238;9.562;2024-03-22T06:43:00;10.50;93.10
3416;DHT22;1721;51.238;9.562;2024-03-22T06:45:25;10.70;93.20
3416;DHT22;1721;51.238;9.562;2024-03-22T06:47:51;10.80;92.80
3416;DHT22;1721;51.238;9.562;2024-03-22T06:50:17;10.80;92.60
3416;DHT22;1721;51.238;9.562;2024-03-22T06:52:53;10.90;92.90
3416;DHT22;1721;51.238;9.562;2024-03-22T06:55:19;11.00;92.60
3416;DHT22;1721;51.238;9.562;2024-03-22T06:57:47;11.10;92.70
3416;DHT22;1721;51.238;9.562;2024-03-22T07:00:13;11.10;92.50
3416;DHT22;1721;51.238;9.562;2024-03-22T07:02:39;11.10;92.30
3416;DHT22;1721;51.238;9.562;2024-03-22T07:05:06;11.10;92.40
3416;DHT22;1721;51.238;9.562;2024-03-22T07:07:32;11.10;92.20
3416;DHT22;1721;51.238;9.562;2024-03-22T07:09:58;11.10;92.30
3416;DHT22;1721;51.238;9.562;2024-03-22T07:12:23;11.00;92.40
3416;DHT22;1721;51.238;9.562;2024-03-22T07:14:49;11.10;92.30
3416;DHT22;1721;51.238;9.562;2024-03-22T07:17:14;11.10;92.10
3416;DHT22;1721;51.238;9.562;2024-03-22T07:19:40;11.00;92.40
3416;DHT22;1721;51.238;9.562;2024-03-22T07:22:06;11.00;92.60
3416;DHT22;1721;51.238;9.562;2024-03-22T07:24:32;11.10;92.50
3416;DHT22;1721;51.238;9.562;2024-03-22T07:26:57;11.10;92.40
3416;DHT22;1721;51.238;9.562;2024-03-22T07:29:23;11.20;92.50
3416;DHT22;1721;51.238;9.562;2024-03-22T07:31:49;11.20;92.50
3416;DHT22;1721;51.238;9.562;2024-03-22T07:34:14;11.20;92.50
3416;DHT22;1721;51.238;9.562;2024-03-22T07:36:40;11.20;92.50
3416;DHT22;1721;51.238;9.562;2024-03-22T07:39:06;11.20;92.40
3416;DHT22;1721;51.238;9.562;2024-03-22T07:41:33;11.10;92.70
3416;DHT22;1721;51.238;9.562;2024-03-22T07:43:59;11.20;92.60
3416;DHT22;1721;51.238;9.562;2024-03-22T07:46:25;11.20;92.50
3416;DHT22;1721;51.238;9.562;2024-03-22T07:48:51;11.30;92.70
3416;DHT22;1721;51.238;9.562;2024-03-22T07:51:17;11.40;92.90
3416;DHT22;1721;51.238;9.562;2024-03-22T07:53:43;11.60;92.90
3416;DHT22;1721;51.238;9.562;2024-03-22T07:56:08;12.00;92.80
3416;DHT22;1721;51.238;9.562;2024-03-22T07:58:34;12.20;92.50
3416;DHT22;1721;51.238;9.562;2024-03-22T08:01:00;12.30;92.40
3416;DHT22;1721;51.238;9.562;2024-03-22T08:03:25;12.50;92.10
3416;DHT22;1721;51.238;9.562;2024-03-22T08:05:51;12.70;92.20
3416;DHT22;1721;51.238;9.562;2024-03-22T08:08:16;12.90;91.70
3416;DHT22;1721;51.238;9.562;2024-03-22T08:10:43;13.00;91.40
3416;DHT22;1721;51.238;9.562;2024-03-22T08:13:08;13.10;91.50
3416;DHT22;1721;51.238;9.562;2024-03-22T08:15:35;13.10;91.40
3416;DHT22;1721;51.238;9.562;2024-03-22T08:18:01;13.30;91.50
3416;DHT22;1721;51.238;9.562;2024-03-22T08:20:26;13.40;91.00
3416;DHT22;1721;51.238;9.562;2024-03-22T08:22:53;13.50;91.30
3416;DHT22;1721;51.238;9.562;2024-03-22T08:25:19;13.60;91.20
3416;DHT22;1721;51.238;9.562;2024-03-22T08:27:46;13.90;90.80
3416;DHT22;1721;51.238;9.562;2024-03-22T08:30:12;14.00;90.50
3416;DHT22;1721;51.238;9.562;2024-03-22T08:32:38;14.10;90.50
3416;DHT22;1721;51.238;9.562;2024-03-22T08:35:03;14.00;90.10
3416;DHT22;1721;51.238;9.562;2024-03-22T08:37:30;14.10;90.20
3416;DHT22;1721;51.238;9.562;2024-03-22T08:39:55;14.20;90.30
3416;DHT22;1721;51.238;9.562;2024-03-22T08:42:21;14.20;90.20
3416;DHT22;1721;51.238;9.562;2024-03-22T08:44:47;14.20;90.40
3416;DHT22;1721;51.238;9.562;2024-03-22T08:47:12;14.10;90.10
3416;DHT22;1721;51.238;9.562;2024-03-22T08:49:38;14.10;90.50
3416;DHT22;1721;51.238;9.562;2024-03-22T08:52:04;14.10;90.90
3416;DHT22;1721;51.238;9.562;2024-03-22T08:54:30;14.20;90.70
3416;DHT22;1721;51.238;9.562;2024-03-22T08:56:55;14.20;90.30
3416;DHT22;1721;51.238;9.562;2024-03-22T08:59:21;14.20;90.70
3416;DHT22;1721;51.238;9.562;2024-03-22T09:01:48;14.40;90.70
3416;DHT22;1721;51.238;9.562;2024-03-22T09:04:14;14.50;90.70
3416;DHT22;1721;51.238;9.562;2024-03-22T09:06:40;14.40;90.30
3416;DHT22;1721;51.238;9.562;2024-03-22T09:09:06;14.50;90.30
3416;DHT22;1721;51.238;9.562;2024-03-22T09:11:33;14.60;90.20
3416;DHT22;1721;51.238;9.562;2024-03-22T09:13:59;14.50;90.50
3416;DHT22;1721;51.238;9.562;2024-03-22T09:16:24;14.30;90.30
3416;DHT22;1721;51.238;9.562;2024-03-22T09:18:50;14.40;90.40
3416;DHT22;1721;51.238;9.562;2024-03-22T09:21:16;14.40;90.70
3416;DHT22;1721;51.238;9.562;2024-03-22T09:23:41;14.40;90.30
3416;DHT22;1721;51.238;9.562;2024-03-22T09:26:09;14.40;90.40
3416;DHT22;1721;51.238;9.562;2024-03-22T09:28:35;14.20;90.50
3416;DHT22;1721;51.238;9.562;2024-03-22T09:31:04;14.10;90.80
3416;DHT22;1721;51.238;9.562;2024-03-22T09:33:32;14.10;90.70
3416;DHT22;1721;51.238;9.562;2024-03-22T09:35:58;14.10;90.80
3416;DHT22;1721;51.238;9.562;2024-03-22T09:38:24;14.10;90.70
3416;DHT22;1721;51.238;9.562;2024-03-22T09:40:49;14.20;90.80
3416;DHT22;1721;51.238;9.562;2024-03-22T09:43:20;14.10;90.90
3416;DHT22;1721;51.238;9.562;2024-03-22T09:45:47;14.10;90.90
3416;DHT22;1721;51.238;9.562;2024-03-22T09:48:15;14.10;91.20
3416;DHT22;1721;51.238;9.562;2024-03-22T09:50:41;14.10;91.10
3416;DHT22;1721;51.238;9.562;2024-03-22T09:53:08;14.10;91.40
3416;DHT22;1721;51.238;9.562;2024-03-22T09:55:35;14.20;91.00
3416;DHT22;1721;51.238;9.562;2024-03-22T09:58:01;14.20;91.10
3416;DHT22;1721;51.238;9.562;2024-03-22T10:00:27;14.20;91.00
3416;DHT22;1721;51.238;9.562;2024-03-22T10:02:53;14.10;90.90
3416;DHT22;1721;51.238;9.562;2024-03-22T10:05:19;14.30;91.00
3416;DHT22;1721;51.238;9.562;2024-03-22T10:07:44;14.40;91.00
3416;DHT22;1721;51.238;9.562;2024-03-22T10:10:10;14.50;90.80
3416;DHT22;1721;51.238;9.562;2024-03-22T10:12:37;14.50;90.70
3416;DHT22;1721;51.238;9.562;2024-03-22T10:15:05;14.40;90.80
3416;DHT22;1721;51.238;9.562;2024-03-22T10:17:31;14.60;90.90
3416;DHT22;1721;51.238;9.562;2024-03-22T10:19:56;14.70;90.50
3416;DHT22;1721;51.238;9.562;2024-03-22T10:22:22;14.70;90.30
3416;DHT22;1721;51.238;9.562;2024-03-22T10:24:50;14.80;91.00
3416;DHT22;1721;51.238;9.562;2024-03-22T10:27:16;14.90;90.80
3416;DHT22;1721;51.238;9.562;2024-03-22T10:29:42;15.10;90.70
3416;DHT22;1721;51.238;9.562;2024-03-22T10:32:08;15.30;90.50
3416;DHT22;1721;51.238;9.562;2024-03-22T10:34:34;15.50;90.40
3416;DHT22;1721;51.238;9.562;2024-03-22T10:37:00;15.60;90.10
3416;DHT22;1721;51.238;9.562;2024-03-22T10:39:27;15.60;89.70
3416;DHT22;1721;51.238;9.562;2024-03-22T10:41:54;15.60;89.70
3416;DHT22;1721;51.238;9.562;2024-03-22T10:44:19;15.50;89.60
3416;DHT22;1721;51.238;9.562;2024-03-22T10:46:47;15.30;90.30
3416;DHT22;1721;51.238;9.562;2024-03-22T10:49:16;15.30;90.20
3416;DHT22;1721;51.238;9.562;2024-03-22T10:51:45;15.40;89.90
3416;DHT22;1721;51.238;9.562;2024-03-22T10:54:15;15.50;90.30
3416;DHT22;1721;51.238;9.562;2024-03-22T10:56:43;15.50;89.80
3416;DHT22;1721;51.238;9.562;2024-03-22T10:59:08;15.50;89.90
3416;DHT22;1721;51.238;9.562;2024-03-22T11:01:38;15.50;89.90
3416;DHT22;1721;51.238;9.562;2024-03-22T11:04:04;15.60;90.10
3416;DHT22;1721;51.238;9.562;2024-03-22T11:06:31;15.80;89.80
3416;DHT22;1721;51.238;9.562;2024-03-22T11:08:59;15.90;89.50
3416;DHT22;1721;51.238;9.562;2024-03-22T11:11:28;16.20;89.40
3416;DHT22;1721;51.238;9.562;2024-03-22T11:13:54;16.30;89.90
3416;DHT22;1721;51.238;9.562;2024-03-22T11:16:21;16.30;89.00
3416;DHT22;1721;51.238;9.562;2024-03-22T11:18:47;16.50;88.80
3416;DHT22;1721;51.238;9.562;2024-03-22T11:21:14;16.60;89.20
3416;DHT22;1721;51.238;9.562;2024-03-22T11:23:40;16.60;89.00
3416;DHT22;1721;51.238;9.562;2024-03-22T11:26:05;16.90;88.80
3416;DHT22;1721;51.238;9.562;2024-03-22T11:28:33;17.10;88.60
3416;DHT22;1721;51.238;9.562;2024-03-22T11:30:59;17.30;87.60
3416;DHT22;1721;51.238;9.562;2024-03-22T11:33:24;17.40;86.70
3416;DHT22;1721;51.238;9.562;2024-03-22T11:35:52;17.40;86.40
3416;DHT22;1721;51.238;9.562;2024-03-22T11:38:18;17.60;86.70
3416;DHT22;1721;51.238;9.562;2024-03-22T11:40:44;17.40;86.60
3416;DHT22;1721;51.238;9.562;2024-03-22T11:43:11;17.30;86.20
3416;DHT22;1721;51.238;9.562;2024-03-22T11:45:37;17.20;86.90
3416;DHT22;1721;51.238;9.562;2024-03-22T11:48:03;17.10;86.20
3416;DHT22;1721;51.238;9.562;2024-03-22T11:50:29;17.10;86.50
3416;DHT22;1721;51.238;9.562;2024-03-22T11:52:56;17.10;86.20
3416;DHT22;1721;51.238;9.562;2024-03-22T11:55:21;17.10;86.70
3416;DHT22;1721;51.238;9.562;2024-03-22T11:57:50;16.90;86.10
3416;DHT22;1721;51.238;9.562;2024-03-22T12:00:18;16.60;86.70
3416;DHT22;1721;51.238;9.562;2024-03-22T12:02:44;16.50;87.30
3416;DHT22;1721;51.238;9.562;2024-03-22T12:05:10;16.60;87.60
3416;DHT22;1721;51.238;9.562;2024-03-22T12:07:36;16.70;87.30
3416;DHT22;1721;51.238;9.562;2024-03-22T12:10:02;16.90;87.60
3416;DHT22;1721;51.238;9.562;2024-03-22T12:12:29;16.80;87.60
3416;DHT22;1721;51.238;9.562;2024-03-22T12:14:55;16.80;86.40
3416;DHT22;1721;51.238;9.562;2024-03-22T12:17:21;16.70;86.90
3416;DHT22;1721;51.238;9.562;2024-03-22T12:19:46;16.50;86.30
3416;DHT22;1721;51.238;9.562;2024-03-22T12:22:12;16.30;87.90
3416;DHT22;1721;51.238;9.562;2024-03-22T12:24:38;16.20;87.10
3416;DHT22;1721;51.238;9.562;2024-03-22T12:27:04;16.30;88.40
3416;DHT22;1721;51.238;9.562;2024-03-22T12:29:32;16.50;88.00
3416;DHT22;1721;51.238;9.562;2024-03-22T12:31:59;16.60;88.30
3416;DHT22;1721;51.238;9.562;2024-03-22T12:34:27;16.80;88.50
3416;DHT22;1721;51.238;9.562;2024-03-22T12:36:54;17.10;87.20
3416;DHT22;1721;51.238;9.562;2024-03-22T12:39:19;17.10;85.70
3416;DHT22;1721;51.238;9.562;2024-03-22T12:41:45;17.10;86.80
3416;DHT22;1721;51.238;9.562;2024-03-22T12:44:10;17.40;86.10
3416;DHT22;1721;51.238;9.562;2024-03-22T12:46:36;17.40;85.80
3416;DHT22;1721;51.238;9.562;2024-03-22T12:49:02;17.40;86.20
3416;DHT22;1721;51.238;9.562;2024-03-22T12:51:27;17.40;85.40
3416;DHT22;1721;51.238;9.562;2024-03-22T12:53:53;17.60;85.50
3416;DHT22;1721;51.238;9.562;2024-03-22T12:56:18;17.50;85.00
3416;DHT22;1721;51.238;9.562;2024-03-22T12:58:44;17.40;84.80
3416;DHT22;1721;51.238;9.562;2024-03-22T13:01:10;17.40;84.70
3416;DHT22;1721;51.238;9.562;2024-03-22T13:03:36;17.30;84.60
3416;DHT22;1721;51.238;9.562;2024-03-22T13:06:03;17.30;85.20
3416;DHT22;1721;51.238;9.562;2024-03-22T13:08:31;17.40;85.80
3416;DHT22;1721;51.238;9.562;2024-03-22T13:10:56;17.30;84.90
3416;DHT22;1721;51.238;9.562;2024-03-22T13:13:22;17.40;85.80
3416;DHT22;1721;51.238;9.562;2024-03-22T13:15:48;17.70;84.60
3416;DHT22;1721;51.238;9.562;2024-03-22T13:18:13;17.70;84.70
3416;DHT22;1721;51.238;9.562;2024-03-22T13:20:39;17.60;85.60
3416;DHT22;1721;51.238;9.562;2024-03-22T13:23:05;17.60;85.00
3416;DHT22;1721;51.238;9.562;2024-03-22T13:25:31;17.70;84.80
3416;DHT22;1721;51.238;9.562;2024-03-22T13:27:56;17.60;84.30
3416;DHT22;1721;51.238;9.562;2024-03-22T13:30:22;17.60;84.70
3416;DHT22;1721;51.238;9.562;2024-03-22T13:32:48;17.60;84.70
3416;DHT22;1721;51.238;9.562;2024-03-22T13:35:13;17.70;84.70
3416;DHT22;1721;51.238;9.562;2024-03-22T13:37:40;17.90;84.20
3416;DHT22;1721;51.238;9.562;2024-03-22T13:40:06;17.70;83.90
3416;DHT22;1721;51.238;9.562;2024-03-22T13:42:32;17.80;85.00
3416;DHT22;1721;51.238;9.562;2024-03-22T13:44:58;17.70;83.80
3416;DHT22;1721;51.238;9.562;2024-03-22T13:47:24;17.70;84.70
3416;DHT22;1721;51.238;9.562;2024-03-22T13:49:50;17.80;85.90
3416;DHT22;1721;51.238;9.562;2024-03-22T13:52:15;17.90;84.20
3416;DHT22;1721;51.238;9.562;2024-03-22T13:54:41;17.70;84.10
3416;DHT22;1721;51.238;9.562;2024-03-22T13:57:06;17.50;84.20
3416;DHT22;1721;51.238;9.562;2024-03-22T13:59:32;17.50;84.60
3416;DHT22;1721;51.238;9.562;2024-03-22T14:01:57;17.60;83.90
3416;DHT22;1721;51.238;9.562;2024-03-22T14:04:23;17.70;84.20
3416;DHT22;1721;51.238;9.562;2024-03-22T14:06:51;17.60;84.70
3416;DHT22;1721;51.238;9.562;2024-03-22T14:09:17;17.30;85.10
3416;DHT22;1721;51.238;9.562;2024-03-22T14:11:43;17.10;84.30
3416;DHT22;1721;51.238;9.562;2024-03-22T14:14:09;17.00;84.30
3416;DHT22;1721;51.238;9.562;2024-03-22T14:16:39;17.00;84.50
3416;DHT22;1721;51.238;9.562;2024-03-22T14:19:04;17.00;84.10
3416;DHT22;1721;51.238;9.562;2024-03-22T14:21:30;16.90;82.90
3416;DHT22;1721;51.238;9.562;2024-03-22T14:23:56;16.80;82.90
3416;DHT22;1721;51.238;9.562;2024-03-22T14:26:22;16.90;82.30
3416;DHT22;1721;51.238;9.562;2024-03-22T14:28:49;16.90;82.00
3416;DHT22;1721;51.238;9.562;2024-03-22T14:31:15;17.00;81.30
3416;DHT22;1721;51.238;9.562;2024-03-22T14:33:41;17.00;81.10
3416;DHT22;1721;51.238;9.562;2024-03-22T14:36:07;17.20;81.70
3416;DHT22;1721;51.238;9.562;2024-03-22T14:38:35;17.50;81.50
3416;DHT22;1721;51.238;9.562;2024-03-22T14:41:02;17.70;80.70
3416;DHT22;1721;51.238;9.562;2024-03-22T14:43:28;17.60;80.20
3416;DHT22;1721;51.238;9.562;2024-03-22T14:45:54;17.50;80.20
3416;DHT22;1721;51.238;9.562;2024-03-22T14:48:23;17.50;80.90
3416;DHT22;1721;51.238;9.562;2024-03-22T14:50:49;17.60;80.90
3416;DHT22;1721;51.238;9.562;2024-03-22T14:53:16;17.50;81.00
3416;DHT22;1721;51.238;9.562;2024-03-22T14:55:56;17.50;79.80
3416;DHT22;1721;51.238;9.562;2024-03-22T14:58:28;17.40;80.40
3416;DHT22;1721;51.238;9.562;2024-03-22T15:00:54;17.30;79.80
3416;DHT22;1721;51.238;9.562;2024-03-22T15:03:20;17.40;80.00
3416;DHT22;1721;51.238;9.562;2024-03-22T15:05:46;17.30;79.80
3416;DHT22;1721;51.238;9.562;2024-03-22T15:08:11;17.30;79.20
3416;DHT22;1721;51.238;9.562;2024-03-22T15:10:38;17.20;78.20
3416;DHT22;1721;51.238;9.562;2024-03-22T15:13:03;17.10;79.20
3416;DHT22;1721;51.238;9.562;2024-03-22T15:15:29;17.20;78.50
3416;DHT22;1721;51.238;9.562;2024-03-22T15:17:55;17.20;78.10
3416;DHT22;1721;51.238;9.562;2024-03-22T15:20:20;17.10;77.40
3416;DHT22;1721;51.238;9.562;2024-03-22T15:22:46;17.00;77.60
3416;DHT22;1721;51.238;9.562;2024-03-22T15:25:11;17.00;77.90
3416;DHT22;1721;51.238;9.562;2024-03-22T15:27:37;16.90;77.80
3416;DHT22;1721;51.238;9.562;2024-03-22T15:30:03;16.90;78.30
3416;DHT22;1721;51.238;9.562;2024-03-22T15:32:31;16.90;78.60
3416;DHT22;1721;51.238;9.562;2024-03-22T15:34:57;16.90;78.80
3416;DHT22;1721;51.238;9.562;2024-03-22T15:37:22;16.80;78.60
3416;DHT22;1721;51.238;9.562;2024-03-22T15:39:48;16.70;78.70
3416;DHT22;1721;51.238;9.562;2024-03-22T15:42:14;16.70;79.30
3416;DHT22;1721;51.238;9.562;2024-03-22T15:44:40;16.70;79.40
3416;DHT22;1721;51.238;9.562;2024-03-22T15:47:05;16.80;80.50
3416;DHT22;1721;51.238;9.562;2024-03-22T15:49:31;17.00;80.10
3416;DHT22;1721;51.238;9.562;2024-03-22T15:51:56;16.90;79.30
3416;DHT22;1721;51.238;9.562;2024-03-22T15:54:22;16.90;79.30
3416;DHT22;1721;51.238;9.562;2024-03-22T15:56:47;16.90;79.50
3416;DHT22;1721;51.238;9.562;2024-03-22T15:59:13;17.00;80.20